Time;durP1;ratioP1;P1;durP2;ratioP2;P2;SDS_P1;SDS_P2;PMS_P1;PMS_P2;Temp;Humidity;BMP_temperature;BMP_pressure;BME280_temperature;BME280_humidity;BME280_pressure;Samples;Min_cycle;Max_cycle;Signal;HPM_P1;HPM_P2
2021/08/09 00:01:19;;;;;;;0.10;0.10;;;;;;;17.92;89.96;99864.81;4789270;29;20052;-78
2021/08/09 00:03:45;;;;;;;0.10;0.10;;;;;;;17.90;89.85;99872.34;4750117;29;20190;-77
2021/08/09 00:06:12;;;;;;;0.10;0.10;;;;;;;17.83;90.33;99872.25;4785746;29;20489;-78
2021/08/09 00:08:38;;;;;;;0.10;0.10;;;;;;;17.78;90.45;99867.38;4772998;29;20459;-81
2021/08/09 00:11:04;;;;;;;0.10;0.10;;;;;;;17.76;90.37;99876.81;4788836;29;20047;-79
2021/08/09 00:13:30;;;;;;;0.10;0.10;;;;;;;17.73;90.48;99875.25;4786487;29;20058;-76
2021/08/09 00:15:57;;;;;;;0.10;0.10;;;;;;;17.70;90.80;99866.63;4797126;29;20051;-76
2021/08/09 00:18:25;;;;;;;0.10;0.10;;;;;;;17.67;90.85;99872.47;4772157;29;20039;-76
2021/08/09 00:20:52;;;;;;;0.10;0.10;;;;;;;17.62;90.57;99875.75;4770768;29;20099;-77
2021/08/09 00:23:19;;;;;;;0.10;0.10;;;;;;;17.63;90.43;99877.47;4786422;29;20059;-76
2021/08/09 00:25:45;;;;;;;0.10;0.10;;;;;;;17.64;91.66;99872.84;4783227;29;20046;-80
2021/08/09 00:28:11;;;;;;;0.10;0.10;;;;;;;17.63;91.52;99876.63;4792863;29;20048;-76
2021/08/09 00:30:36;;;;;;;0.10;0.10;;;;;;;17.62;91.41;99874.91;4755193;29;20058;-77
2021/08/09 00:33:03;;;;;;;0.10;0.10;;;;;;;17.58;91.85;99875.28;4774628;29;20062;-78
2021/08/09 00:35:29;;;;;;;0.10;0.10;;;;;;;17.56;91.37;99876.53;4750962;29;20050;-76
2021/08/09 00:37:55;;;;;;;0.10;0.10;;;;;;;17.53;91.03;99875.03;4740616;29;20058;-77
2021/08/09 00:40:21;;;;;;;0.10;0.10;;;;;;;17.52;91.16;99876.06;4775285;29;20077;-79
2021/08/09 00:42:47;;;;;;;0.10;0.10;;;;;;;17.50;90.46;99871.81;4776388;29;20796;-80
2021/08/09 00:45:13;;;;;;;0.20;0.20;;;;;;;17.46;90.86;99871.34;4755568;29;20055;-78
2021/08/09 00:47:40;;;;;;;0.10;0.10;;;;;;;17.45;91.50;99864.22;4776284;29;20048;-78
2021/08/09 00:50:07;;;;;;;0.10;0.10;;;;;;;17.44;91.93;99868.00;4773737;29;20054;-77
2021/08/09 00:52:34;;;;;;;0.10;0.10;;;;;;;17.45;92.35;99868.84;4784469;29;20039;-76
2021/08/09 00:55:02;;;;;;;0.10;0.10;;;;;;;17.46;92.02;99865.06;4754333;30;20556;-77
2021/08/09 00:57:28;;;;;;;0.10;0.10;;;;;;;17.41;92.30;99857.44;4754843;30;20181;-79
2021/08/09 01:00:00;;;;;;;0.10;0.10;;;;;;;17.42;91.83;99853.66;4765167;30;20059;-78
2021/08/09 01:02:27;;;;;;;0.10;0.10;;;;;;;17.38;92.22;99857.81;4756974;29;20100;-77
2021/08/09 01:04:53;;;;;;;0.10;0.10;;;;;;;17.34;92.49;99857.34;4765990;29;20118;-78
2021/08/09 01:07:21;;;;;;;0.10;0.10;;;;;;;17.35;92.46;99858.19;4747753;30;20104;-77
2021/08/09 01:09:50;;;;;;;0.10;0.10;;;;;;;17.32;92.18;99847.63;4749131;30;20130;-77
2021/08/09 01:12:27;;;;;;;0.10;0.10;;;;;;;17.32;92.13;99859.41;4754953;30;20096;-76
2021/08/09 01:15:01;;;;;;;0.10;0.10;;;;;;;17.31;92.83;99856.88;4738966;30;20138;-76
2021/08/09 01:17:35;;;;;;;0.10;0.10;;;;;;;17.27;92.75;99856.41;4763206;30;20541;-76
2021/08/09 01:20:26;;;;;;;0.10;0.10;;;;;;;17.26;92.75;99853.88;4768362;30;20143;-76
2021/08/09 01:23:10;;;;;;;0.10;0.10;;;;;;;17.24;92.47;99851.31;4765273;29;20127;-75
2021/08/09 01:25:50;;;;;;;0.10;0.10;;;;;;;17.22;92.47;99858.00;4757145;29;20051;-76
2021/08/09 01:28:19;;;;;;;0.17;0.17;;;;;;;17.18;92.83;99852.06;4789891;29;20063;-78
2021/08/09 01:30:47;;;;;;;0.10;0.10;;;;;;;17.16;92.71;99853.31;4752196;30;20048;-77
2021/08/09 01:33:16;;;;;;;0.10;0.10;;;;;;;17.14;92.09;99850.75;4740157;30;20051;-76
2021/08/09 01:35:42;;;;;;;0.10;0.10;;;;;;;17.11;92.15;99852.00;4761887;30;20141;-75
2021/08/09 01:38:09;;;;;;;0.10;0.10;;;;;;;17.10;91.80;99861.19;4766111;30;20054;-76
2021/08/09 01:40:38;;;;;;;0.10;0.10;;;;;;;17.06;91.71;99862.63;4786003;29;20050;-76
2021/08/09 01:43:04;;;;;;;0.10;0.10;;;;;;;17.05;91.98;99852.72;4758923;29;20050;-78
2021/08/09 01:45:32;;;;;;;0.10;0.10;;;;;;;17.03;91.90;99857.53;4771764;29;20441;-77
2021/08/09 01:47:59;;;;;;;0.13;0.13;;;;;;;17.05;92.05;99863.66;4767864;30;20077;-77
2021/08/09 01:50:29;;;;;;;0.10;0.10;;;;;;;17.04;92.60;99861.13;4769097;29;20047;-77
2021/08/09 01:52:56;;;;;;;0.10;0.10;;;;;;;17.03;91.90;99865.72;4777361;30;20058;-76
2021/08/09 01:55:23;;;;;;;0.10;0.10;;;;;;;17.02;91.68;99868.66;4752419;30;20047;-79
2021/08/09 01:57:52;;;;;;;0.10;0.10;;;;;;;16.99;91.61;99867.13;4755600;29;20086;-78
2021/08/09 02:00:21;;;;;;;0.20;0.20;;;;;;;16.98;91.43;99864.59;4747665;29;20087;-78
2021/08/09 02:02:52;;;;;;;0.10;0.10;;;;;;;16.95;91.86;99878.63;4771206;29;20429;-77
2021/08/09 02:05:18;;;;;;;0.15;0.15;;;;;;;16.95;91.85;99881.34;4768120;29;20047;-77
2021/08/09 02:07:54;;;;;;;0.10;0.10;;;;;;;16.94;91.23;99888.72;4753636;29;20188;-78
2021/08/09 02:10:25;;;;;;;0.10;0.10;;;;;;;16.89;91.60;99891.13;4767403;29;20048;-77
2021/08/09 02:13:08;;;;;;;0.20;0.20;;;;;;;16.83;91.68;99897.34;4748128;29;20091;-76
2021/08/09 02:15:49;;;;;;;0.10;0.10;;;;;;;16.81;91.95;99899.41;4763903;30;22700;-77
2021/08/09 02:18:37;;;;;;;0.20;0.20;;;;;;;16.81;91.89;99896.69;4740409;29;20095;-77
2021/08/09 02:21:07;;;;;;;0.10;0.10;;;;;;;16.80;91.82;99903.19;4761032;29;20051;-79
2021/08/09 02:23:53;;;;;;;0.10;0.10;;;;;;;16.81;92.09;99905.72;4725436;29;20190;-77
2021/08/09 02:26:49;;;;;;;0.17;0.17;;;;;;;16.84;92.79;99904.50;4758809;29;20051;-79
2021/08/09 02:29:22;;;;;;;0.10;0.10;;;;;;;16.84;92.92;99899.03;4759674;29;20039;-79
2021/08/09 02:31:48;;;;;;;0.10;0.10;;;;;;;16.89;93.07;99912.97;4754354;29;20047;-78
2021/08/09 02:34:17;;;;;;;0.10;0.10;;;;;;;16.90;92.82;99908.38;4745192;29;20197;-77
2021/08/09 02:36:43;;;;;;;0.10;0.10;;;;;;;16.91;92.53;99916.38;4760910;30;20086;-77
2021/08/09 02:39:13;;;;;;;0.10;0.10;;;;;;;16.90;92.36;99919.31;4738805;30;20071;-78
2021/08/09 02:41:39;;;;;;;0.10;0.10;;;;;;;16.90;92.40;99914.69;4752635;29;20092;-77
2021/08/09 02:44:07;;;;;;;0.10;0.10;;;;;;;16.88;92.34;99911.28;4717341;29;20051;-77
2021/08/09 02:46:34;;;;;;;0.10;0.10;;;;;;;16.90;92.57;99902.94;4767406;29;20157;-77
2021/08/09 02:49:00;;;;;;;0.10;0.10;;;;;;;16.94;92.79;99905.09;4767745;29;20058;-78
2021/08/09 02:51:26;;;;;;;0.10;0.10;;;;;;;16.97;93.00;99904.72;4738639;29;20051;-79
2021/08/09 02:53:53;;;;;;;0.10;0.10;;;;;;;17.00;92.58;99904.34;4792589;29;20054;-75
2021/08/09 02:56:23;;;;;;;0.17;0.17;;;;;;;17.01;92.64;99903.31;4753288;29;20122;-76
2021/08/09 02:58:51;;;;;;;0.20;0.20;;;;;;;17.01;92.18;99906.03;4766800;29;20049;-79
2021/08/09 03:01:18;;;;;;;0.20;0.20;;;;;;;17.03;91.74;99903.97;4749049;29;20047;-78
2021/08/09 03:03:47;;;;;;;0.10;0.10;;;;;;;17.03;91.79;99903.97;4768132;29;20047;-77
2021/08/09 03:06:13;;;;;;;0.20;0.20;;;;;;;17.01;91.79;99906.03;4763452;29;20055;-78
2021/08/09 03:08:40;;;;;;;0.10;0.10;;;;;;;17.01;91.79;99908.78;4750192;29;20054;-77
2021/08/09 03:11:06;;;;;;;0.10;0.10;;;;;;;17.05;91.92;99915.56;4766020;29;20451;-77
2021/08/09 03:13:32;;;;;;;0.10;0.10;;;;;;;17.09;91.71;99911.41;4755057;29;20550;-77
2021/08/09 03:15:58;;;;;;;0.13;0.10;;;;;;;17.13;91.55;99902.84;4755541;29;20056;-78
2021/08/09 03:18:32;;;;;;;0.15;0.15;;;;;;;17.15;90.94;99901.63;4765772;29;20043;-78
2021/08/09 03:20:58;;;;;;;0.20;0.20;;;;;;;17.25;91.48;99906.81;4737696;29;20051;-77
2021/08/09 03:23:24;;;;;;;0.10;0.10;;;;;;;17.32;91.34;99915.94;4765173;29;20066;-77
2021/08/09 03:25:50;;;;;;;0.20;0.20;;;;;;;17.47;90.77;99911.31;4750140;30;20055;-78
2021/08/09 03:28:16;;;;;;;0.20;0.20;;;;;;;17.73;89.88;99915.44;4759887;29;20157;-78
2021/08/09 03:30:42;;;;;;;0.20;0.20;;;;;;;18.00;88.87;99912.03;4766376;29;20051;-77
2021/08/09 03:33:07;;;;;;;0.20;0.20;;;;;;;18.25;87.58;99914.41;4766888;29;20055;-78
2021/08/09 03:35:35;;;;;;;0.20;0.20;;;;;;;18.48;86.79;99908.72;4751836;29;20054;-79
2021/08/09 03:38:01;;;;;;;0.20;0.20;;;;;;;18.72;85.91;99921.19;4767165;29;20050;-76
2021/08/09 03:40:27;;;;;;;0.20;0.20;;;;;;;18.91;85.46;99919.69;4761098;29;20437;-77
2021/08/09 03:42:54;;;;;;;0.20;0.20;;;;;;;19.14;84.45;99916.66;4764974;29;20071;-78
2021/08/09 03:45:20;;;;;;;0.10;0.10;;;;;;;19.33;83.48;99917.84;4792189;29;20047;-79
2021/08/09 03:47:46;;;;;;;0.20;0.20;;;;;;;19.58;82.77;99927.28;4743509;29;20046;-77
2021/08/09 03:50:12;;;;;;;0.20;0.20;;;;;;;19.76;82.66;99924.00;4792934;29;20146;-78
2021/08/09 03:52:46;;;;;;;0.20;0.20;;;;;;;19.97;81.75;99926.63;4746372;29;20054;-78
2021/08/09 03:55:12;;;;;;;0.20;0.20;;;;;;;20.19;80.94;99934.75;4754266;29;20051;-79
2021/08/09 03:57:38;;;;;;;0.20;0.20;;;;;;;20.33;79.95;99928.22;4777744;29;20047;-77
2021/08/09 04:00:05;;;;;;;0.20;0.20;;;;;;;20.51;79.41;99932.28;4763397;29;20043;-80
2021/08/09 04:02:39;;;;;;;0.20;0.20;;;;;;;20.66;78.78;99919.22;4785721;29;20234;-81
2021/08/09 04:05:09;;;;;;;0.20;0.20;;;;;;;20.89;77.84;99918.78;4754775;30;20058;-81
2021/08/09 04:07:37;;;;;;;0.20;0.20;;;;;;;21.08;77.12;99917.09;4752079;30;20139;-79
2021/08/09 04:10:04;;;;;;;0.20;0.20;;;;;;;21.24;76.50;99905.63;4785912;29;20133;-79
2021/08/09 04:12:31;;;;;;;0.20;0.20;;;;;;;21.50;75.53;99917.66;4773726;29;20518;-82
2021/08/09 04:14:57;;;;;;;0.20;0.20;;;;;;;21.65;74.67;99907.25;4792495;29;20317;-78
2021/08/09 04:17:23;;;;;;;0.20;0.20;;;;;;;21.85;74.72;99919.03;4768389;29;20536;-79
2021/08/09 04:19:49;;;;;;;0.30;0.30;;;;;;;22.03;74.06;99922.97;4765546;29;20043;-77
2021/08/09 04:22:14;;;;;;;0.30;0.30;;;;;;;22.21;73.21;99923.13;4761461;29;20047;-78
2021/08/09 04:24:41;;;;;;;0.20;0.20;;;;;;;22.36;73.41;99923.66;4784158;29;20587;-81
2021/08/09 04:27:07;;;;;;;0.20;0.20;;;;;;;22.47;73.07;99911.09;4743537;29;20128;-80
2021/08/09 04:29:33;;;;;;;0.20;0.20;;;;;;;22.74;72.31;99928.25;4772706;29;20047;-78
2021/08/09 04:31:59;;;;;;;0.20;0.20;;;;;;;22.95;71.30;99928.97;4780554;29;20067;-79
2021/08/09 04:34:25;;;;;;;0.22;0.22;;;;;;;23.16;70.06;99917.53;4784848;29;20046;-77
2021/08/09 04:36:53;;;;;;;0.22;0.22;;;;;;;23.34;69.87;99920.34;4743322;30;20055;-80
2021/08/09 04:39:19;;;;;;;0.20;0.20;;;;;;;23.48;69.12;99922.97;4753442;29;20047;-78
2021/08/09 04:41:45;;;;;;;0.20;0.20;;;;;;;23.69;68.23;99914.22;4769465;30;20648;-81
2021/08/09 04:44:13;;;;;;;0.20;0.20;;;;;;;23.90;67.13;99920.38;4760332;29;20054;-78
2021/08/09 04:46:40;;;;;;;0.30;0.30;;;;;;;24.13;66.86;99920.47;4790601;29;20068;-80
2021/08/09 04:49:06;;;;;;;0.30;0.30;;;;;;;24.34;65.92;99926.56;4772245;29;20054;-77
2021/08/09 04:51:33;;;;;;;0.30;0.30;;;;;;;24.38;65.81;99922.25;4774087;29;20057;-81
2021/08/09 04:53:59;;;;;;;0.30;0.30;;;;;;;24.73;64.30;99919.63;4767406;30;20047;-78
2021/08/09 04:56:26;;;;;;;0.30;0.30;;;;;;;25.01;62.86;99916.16;4774573;29;20082;-79
2021/08/09 04:58:52;;;;;;;0.30;0.30;;;;;;;25.13;62.48;99910.69;4784605;29;20065;-80
2021/08/09 05:01:18;;;;;;;0.28;0.28;;;;;;;25.42;62.03;99918.03;4741470;29;20050;-79
2021/08/09 05:03:45;;;;;;;0.30;0.30;;;;;;;25.41;61.71;99909.94;4768802;29;20048;-80
2021/08/09 05:06:18;;;;;;;0.35;0.35;;;;;;;25.62;61.70;99917.63;4757106;29;20484;-80
2021/08/09 05:08:45;;;;;;;0.30;0.30;;;;;;;25.90;60.20;99924.34;4756810;30;20048;-81
2021/08/09 05:11:12;;;;;;;0.30;0.30;;;;;;;26.11;59.62;99920.91;4755349;30;20538;-79
2021/08/09 05:13:38;;;;;;;0.30;0.30;;;;;;;26.39;58.40;99924.75;4774903;29;20454;-81
2021/08/09 05:16:05;;;;;;;0.30;0.30;;;;;;;26.61;57.93;99920.19;4742854;30;20411;-82
2021/08/09 05:18:32;;;;;;;0.30;0.30;;;;;;;26.89;56.67;99921.25;4767421;29;20111;-80
2021/08/09 05:20:59;;;;;;;0.30;0.30;;;;;;;26.96;57.19;99908.03;4756661;30;20051;-79
2021/08/09 05:23:25;;;;;;;0.35;0.35;;;;;;;27.03;57.16;99905.94;4764721;30;20055;-81
2021/08/09 05:25:51;;;;;;;0.30;0.30;;;;;;;27.30;55.92;99908.03;4749330;30;20401;-83
2021/08/09 05:28:17;;;;;;;0.40;0.40;;;;;;;27.33;55.54;99900.03;4777398;29;20047;-79
2021/08/09 05:30:43;;;;;;;0.40;0.40;;;;;;;27.73;54.29;99909.19;4741304;29;20431;-81
2021/08/09 05:33:10;;;;;;;0.40;0.40;;;;;;;28.00;53.02;99907.34;4748101;29;20047;-80
2021/08/09 05:35:37;;;;;;;0.40;0.40;;;;;;;28.46;51.74;99907.88;4774145;29;20051;-83
2021/08/09 05:38:03;;;;;;;0.40;0.40;;;;;;;28.67;51.01;99916.41;4762791;30;20546;-83
2021/08/09 05:40:30;;;;;;;0.30;0.30;;;;;;;28.68;50.55;99916.16;4747670;30;20114;-82
2021/08/09 05:42:57;;;;;;;0.40;0.40;;;;;;;29.03;50.03;99904.53;4752564;30;20101;-84
2021/08/09 05:45:25;;;;;;;0.40;0.40;;;;;;;29.33;49.92;99916.16;4766288;29;20050;-85
2021/08/09 05:47:52;;;;;;;0.40;0.40;;;;;;;29.54;48.01;99904.00;4776598;29;20403;-84
2021/08/09 05:50:19;;;;;;;0.40;0.40;;;;;;;29.75;48.08;99905.00;4749940;30;20048;-83
2021/08/09 05:53:07;;;;;;;0.40;0.40;;;;;;;29.76;47.78;99903.88;4752013;29;20050;-83
2021/08/09 05:55:35;;;;;;;0.43;0.43;;;;;;;30.00;46.83;99904.25;4750291;29;20048;-83
2021/08/09 05:58:04;;;;;;;0.43;0.43;;;;;;;30.24;46.07;99901.84;4745572;29;20138;-83
2021/08/09 06:00:33;;;;;;;0.30;0.30;;;;;;;30.54;45.44;99898.28;4752968;29;20051;-85
2021/08/09 06:03:03;;;;;;;0.38;0.38;;;;;;;30.82;44.87;99899.72;4769915;29;20478;-83
2021/08/09 06:05:41;;;;;;;0.20;0.20;;;;;;;30.27;45.65;99898.50;4751298;29;20143;-84
2021/08/09 06:08:11;;;;;;;0.20;0.20;;;;;;;29.76;47.01;99898.28;4762954;30;20047;-83
2021/08/09 06:10:40;;;;;;;0.20;0.20;;;;;;;29.40;47.79;99900.88;4755617;29;20047;-84
2021/08/09 06:13:12;;;;;;;0.20;0.20;;;;;;;29.34;48.06;99904.75;4763901;29;20364;-84
2021/08/09 06:15:40;;;;;;;0.45;0.45;;;;;;;29.64;47.88;99906.88;4771341;29;20051;-83
2021/08/09 06:18:06;;;;;;;0.40;0.40;;;;;;;29.78;47.40;99912.81;4753933;30;20048;-82
2021/08/09 06:20:33;;;;;;;0.20;0.20;;;;;;;29.66;47.14;99901.06;4744738;29;20053;-82
2021/08/09 06:22:59;;;;;;;0.20;0.20;;;;;;;29.82;46.06;99905.56;4771182;29;20107;-84
2021/08/09 06:25:26;;;;;;;0.30;0.30;;;;;;;30.06;46.90;99893.94;4744064;29;20071;-81
2021/08/09 06:27:52;;;;;;;0.47;0.47;;;;;;;30.13;46.46;99891.72;4740991;29;20142;-82
2021/08/09 06:30:18;;;;;;;0.50;0.50;;;;;;;30.97;44.80;99896.94;4772110;29;20115;-84
2021/08/09 06:32:44;;;;;;;0.52;0.52;;;;;;;31.19;43.67;99898.56;4754860;30;20054;-84
2021/08/09 06:35:12;;;;;;;0.50;0.50;;;;;;;31.68;42.25;99889.56;4743374;29;20531;-83
2021/08/09 06:37:40;;;;;;;0.60;0.60;;;;;;;32.19;41.78;99900.53;4758834;30;20047;-81
2021/08/09 06:40:07;;;;;;;0.60;0.60;;;;;;;32.52;40.44;99890.56;4759962;30;21025;-85
2021/08/09 06:42:33;;;;;;;0.50;0.50;;;;;;;33.14;39.93;99893.72;4746805;30;20702;-81
2021/08/09 06:45:11;;;;;;;1.45;1.40;;;;;;;33.40;38.47;99899.06;4756121;30;20139;-80
2021/08/09 06:47:37;;;;;;;0.50;0.50;;;;;;;33.63;38.20;99891.81;4766401;29;21011;-84
2021/08/09 06:50:04;;;;;;;0.50;0.50;;;;;;;33.86;37.56;99893.78;4765064;29;20051;-83
2021/08/09 06:52:34;;;;;;;0.60;0.60;;;;;;;33.92;37.27;99892.56;4747046;29;20469;-83
2021/08/09 06:55:00;;;;;;;0.60;0.60;;;;;;;34.05;37.81;99882.63;4738001;29;20067;-81
2021/08/09 06:57:29;;;;;;;0.60;0.60;;;;;;;34.55;36.85;99888.63;4767033;29;20047;-83
2021/08/09 06:59:57;;;;;;;0.57;0.57;;;;;;;34.46;37.15;99890.44;4752490;29;20402;-83
2021/08/09 07:02:26;;;;;;;0.60;0.60;;;;;;;34.93;35.90;99895.03;4776706;29;20131;-84
2021/08/09 07:04:52;;;;;;;0.70;0.70;;;;;;;35.16;35.41;99898.88;4765962;29;20062;-83
2021/08/09 07:07:18;;;;;;;0.60;0.60;;;;;;;35.39;34.91;99901.84;4770960;29;20055;-83
2021/08/09 07:09:44;;;;;;;0.60;0.60;;;;;;;35.14;35.53;99905.94;4778359;29;20262;-85
2021/08/09 07:12:10;;;;;;;0.60;0.60;;;;;;;35.51;34.77;99902.22;4793447;29;20095;-83
2021/08/09 07:14:38;;;;;;;0.60;0.60;;;;;;;35.92;33.72;99901.38;4779930;29;20031;-83
2021/08/09 07:17:05;;;;;;;0.70;0.70;;;;;;;36.18;33.05;99894.06;4773853;29;20061;-82
2021/08/09 07:19:35;;;;;;;0.70;0.70;;;;;;;36.22;32.61;99889.44;4770379;29;20044;-86
2021/08/09 07:22:03;;;;;;;0.80;0.80;;;;;;;36.43;32.78;99886.19;4767123;29;20076;-85
2021/08/09 07:24:34;;;;;;;0.80;0.80;;;;;;;36.63;32.90;99891.34;4767935;29;20043;-85
2021/08/09 07:27:02;;;;;;;0.63;0.63;;;;;;;37.04;31.40;99887.53;4774478;29;20052;-84
2021/08/09 07:29:29;;;;;;;0.60;0.60;;;;;;;37.26;30.61;99891.44;4764704;29;20095;-85
2021/08/09 07:31:56;;;;;;;0.60;0.60;;;;;;;37.61;30.58;99881.19;4755262;29;20043;-82
2021/08/09 07:34:23;;;;;;;0.70;0.70;;;;;;;37.47;30.43;99881.31;4755583;29;20048;-85
2021/08/09 07:36:50;;;;;;;0.63;0.63;;;;;;;37.56;30.24;99885.00;4753712;29;20047;-83
2021/08/09 07:39:17;;;;;;;0.70;0.70;;;;;;;37.97;29.35;99883.84;4754505;29;20449;-83
2021/08/09 07:41:44;;;;;;;0.73;0.73;;;;;;;37.77;29.77;99887.22;4763618;29;20040;-84
2021/08/09 07:44:12;;;;;;;0.70;0.70;;;;;;;37.69;29.99;99882.38;4778529;29;20035;-83
2021/08/09 07:46:38;;;;;;;0.68;0.68;;;;;;;37.79;30.87;99882.09;4745581;29;20044;-83
2021/08/09 07:49:07;;;;;;;0.82;0.82;;;;;;;37.89;29.44;99876.19;4784275;29;20040;-85
2021/08/09 07:51:34;;;;;;;0.70;0.70;;;;;;;38.23;28.95;99874.56;4780463;29;20051;-83
2021/08/09 07:54:00;;;;;;;0.60;0.60;;;;;;;38.19;28.83;99874.41;4795926;29;20451;-84
2021/08/09 07:56:27;;;;;;;0.70;0.70;;;;;;;38.52;28.17;99871.94;4764035;29;20048;-82
2021/08/09 07:58:55;;;;;;;0.70;0.70;;;;;;;39.00;26.86;99870.09;4736677;30;20135;-83
2021/08/09 08:01:22;;;;;;;0.63;0.63;;;;;;;39.15;26.52;99866.72;4760527;30;20039;-85
2021/08/09 08:03:49;;;;;;;0.88;0.88;;;;;;;39.43;27.05;99872.81;4782491;30;20085;-85
2021/08/09 08:06:16;;;;;;;0.70;0.70;;;;;;;39.46;25.97;99868.50;4759420;29;20040;-85
2021/08/09 08:08:43;;;;;;;0.80;0.80;;;;;;;39.29;26.44;99873.03;4758820;29;20036;-76
2021/08/09 08:11:09;;;;;;;0.60;0.60;;;;;;;39.84;25.88;99876.16;4754377;29;20333;-79
2021/08/09 08:13:35;;;;;;;0.70;0.70;;;;;;;40.05;25.33;99876.19;4760025;29;20047;-76
2021/08/09 08:16:02;;;;;;;0.68;0.68;;;;;;;40.09;24.77;99871.50;4748431;30;20498;-79
2021/08/09 08:18:29;;;;;;;0.80;0.80;;;;;;;39.82;25.08;99873.63;4762095;29;20285;-79
2021/08/09 08:20:55;;;;;;;0.70;0.70;;;;;;;39.49;25.95;99868.66;4754434;29;20910;-77
2021/08/09 08:23:22;;;;;;;0.70;0.70;;;;;;;39.78;25.61;99867.00;4770756;29;20047;-78
2021/08/09 08:25:48;;;;;;;0.75;0.75;;;;;;;40.33;25.11;99871.66;4758080;29;20139;-78
2021/08/09 08:28:15;;;;;;;0.80;0.80;;;;;;;40.83;24.46;99865.09;4757722;30;20099;-78
2021/08/09 08:30:42;;;;;;;0.70;0.70;;;;;;;41.47;23.92;99862.91;4753009;29;20063;-80
2021/08/09 08:33:12;;;;;;;0.70;0.70;;;;;;;41.21;23.68;99866.84;4753656;29;20051;-77
2021/08/09 08:35:38;;;;;;;0.70;0.70;;;;;;;40.90;24.32;99868.19;4740084;29;20835;-76
2021/08/09 08:38:05;;;;;;;0.70;0.70;;;;;;;41.52;23.91;99874.88;4728196;29;20510;-76
2021/08/09 08:40:33;;;;;;;0.73;0.73;;;;;;;41.29;23.28;99868.78;4769642;29;20312;-77
2021/08/09 08:43:00;;;;;;;0.80;0.80;;;;;;;41.92;23.06;99869.34;4740804;29;20116;-78
2021/08/09 08:45:27;;;;;;;0.70;0.70;;;;;;;41.86;22.67;99882.09;4769299;29;20218;-76
2021/08/09 08:47:58;;;;;;;0.70;0.70;;;;;;;41.68;22.36;99880.66;4728864;29;20200;-78
2021/08/09 08:50:26;;;;;;;0.80;0.80;;;;;;;41.66;21.89;99883.03;4756077;29;20529;-76
2021/08/09 08:52:53;;;;;;;0.80;0.80;;;;;;;42.02;21.97;99890.75;4752749;29;20051;-78
2021/08/09 08:55:23;;;;;;;0.70;0.70;;;;;;;41.84;21.85;99889.34;4770640;29;20162;-76
2021/08/09 08:57:49;;;;;;;0.80;0.80;;;;;;;42.00;22.19;99878.09;4770994;29;20031;-77
2021/08/09 09:00:15;;;;;;;0.70;0.70;;;;;;;41.97;21.67;99884.47;4755448;29;20510;-76
2021/08/09 09:02:42;;;;;;;0.40;0.40;;;;;;;41.92;21.92;99880.69;4741120;29;20047;-80
2021/08/09 09:05:16;;;;;;;0.75;0.75;;;;;;;41.26;22.02;99874.34;4755064;29;20051;-81
2021/08/09 09:07:49;;;;;;;0.80;0.80;;;;;;;41.18;22.02;99876.09;4763694;29;20043;-81
2021/08/09 09:10:26;;;;;;;0.60;0.60;;;;;;;41.38;21.66;99865.84;4776789;29;20055;-82
2021/08/09 09:13:15;;;;;;;0.70;0.70;;;;;;;41.04;22.28;99861.41;4773789;29;20211;-84
2021/08/09 09:15:54;;;;;;;0.80;0.80;;;;;;;41.50;22.27;99862.19;4758366;29;20075;-81
2021/08/09 09:18:21;;;;;;;0.70;0.70;;;;;;;41.86;21.46;99859.38;4769800;29;20055;-82
2021/08/09 09:20:48;;;;;;;0.70;0.70;;;;;;;41.70;21.78;99872.63;4754170;29;20043;-81
2021/08/09 09:23:16;;;;;;;0.65;0.65;;;;;;;42.14;21.16;99867.16;4732704;29;20051;-79
2021/08/09 09:25:47;;;;;;;0.70;0.70;;;;;;;42.13;21.51;99862.69;4770657;29;20086;-81
2021/08/09 09:28:28;;;;;;;0.70;0.70;;;;;;;41.92;21.30;99866.50;4770113;29;20052;-80
2021/08/09 09:31:01;;;;;;;0.60;0.60;;;;;;;42.05;20.65;99863.63;4757693;29;20109;-82
2021/08/09 09:33:32;;;;;;;0.68;0.68;;;;;;;41.94;21.20;99863.28;4759245;29;20047;-81
2021/08/09 09:36:03;;;;;;;0.67;0.67;;;;;;;42.27;21.01;99863.16;4760559;29;20047;-82
2021/08/09 09:38:40;;;;;;;0.60;0.60;;;;;;;41.84;21.30;99855.28;4752480;29;20296;-80
2021/08/09 09:41:07;;;;;;;0.60;0.60;;;;;;;41.30;21.22;99859.09;4710522;29;20054;-79
2021/08/09 09:43:41;;;;;;;0.60;0.60;;;;;;;42.20;21.55;99848.69;4768763;29;20046;-79
2021/08/09 09:46:09;;;;;;;0.50;0.50;;;;;;;41.84;22.03;99841.88;4754368;30;20617;-80
2021/08/09 09:48:36;;;;;;;0.60;0.60;;;;;;;40.78;22.46;99853.97;4741182;29;20700;-80
2021/08/09 09:51:16;;;;;;;0.60;0.60;;;;;;;41.52;22.33;99854.19;4741047;29;20051;-82
2021/08/09 09:53:44;;;;;;;0.60;0.60;;;;;;;41.42;21.32;99850.59;4768450;29;20044;-80
2021/08/09 09:56:10;;;;;;;0.50;0.50;;;;;;;41.85;21.82;99843.53;4762210;30;20059;-81
2021/08/09 09:58:38;;;;;;;0.50;0.50;;;;;;;41.28;22.06;99838.72;4776161;29;20097;-80
2021/08/09 10:01:05;;;;;;;0.65;0.65;;;;;;;41.58;21.47;99845.06;4749091;29;20427;-80
2021/08/09 10:03:32;;;;;;;0.60;0.60;;;;;;;42.07;21.16;99845.03;4777024;29;20035;-79
2021/08/09 10:06:00;;;;;;;0.60;0.60;;;;;;;42.57;20.18;99848.59;4764807;29;20069;-81
2021/08/09 10:09:00;;;;;;;0.50;0.50;;;;;;;42.91;20.54;99852.03;4752887;29;20466;-81
2021/08/09 10:11:38;;;;;;;0.57;0.57;;;;;;;42.93;20.33;99849.63;4764904;29;20059;-81
2021/08/09 10:14:27;;;;;;;0.50;0.50;;;;;;;42.90;19.92;99848.34;4747950;30;20075;-80
2021/08/09 10:17:06;;;;;;;0.60;0.60;;;;;;;42.79;20.35;99845.22;4731978;30;20074;-81
2021/08/09 10:19:49;;;;;;;0.50;0.50;;;;;;;42.71;20.70;99840.50;4741108;30;20063;-78
2021/08/09 10:22:23;;;;;;;0.50;0.50;;;;;;;41.95;21.09;99838.56;4754201;30;20541;-80
2021/08/09 10:24:55;;;;;;;0.50;0.50;;;;;;;41.52;22.51;99842.81;4741868;30;20192;-80
2021/08/09 10:27:52;;;;;;;0.60;0.60;;;;;;;42.06;21.15;99840.56;4733938;30;20143;-80
2021/08/09 10:30:28;;;;;;;0.60;0.60;;;;;;;42.13;20.98;99835.09;4755927;30;20056;-80
2021/08/09 10:32:57;;;;;;;0.50;0.50;;;;;;;42.50;21.06;99837.03;4731926;30;20633;-82
2021/08/09 10:35:57;;;;;;;0.40;0.40;;;;;;;42.77;20.69;99843.91;4732645;30;20059;-81
2021/08/09 10:38:44;;;;;;;0.50;0.50;;;;;;;42.77;20.57;99847.56;4753966;30;20109;-80
2021/08/09 10:41:37;;;;;;;0.50;0.50;;;;;;;42.83;20.30;99837.59;4760473;30;20058;-79
2021/08/09 10:44:15;;;;;;;0.40;0.40;;;;;;;42.69;20.66;99831.50;4735162;30;20061;-77
2021/08/09 10:46:47;;;;;;;0.40;0.40;;;;;;;41.26;21.23;99835.44;4726615;30;20060;-81
2021/08/09 10:49:48;;;;;;;0.50;0.50;;;;;;;40.47;22.33;99838.19;4755939;30;20091;-79
2021/08/09 10:52:37;;;;;;;0.50;0.50;;;;;;;40.32;23.00;99836.00;4712594;30;20084;-80
2021/08/09 10:55:38;;;;;;;0.50;0.50;;;;;;;41.10;22.10;99837.28;4697345;30;20143;-79
2021/08/09 10:58:46;;;;;;;0.43;0.43;;;;;;;40.78;22.60;99836.97;4743858;30;20075;-80
2021/08/09 11:01:27;;;;;;;0.40;0.40;;;;;;;38.66;25.01;99820.09;4727487;30;20071;-79
2021/08/09 11:04:11;;;;;;;0.50;0.50;;;;;;;38.96;24.17;99824.69;4743188;30;20051;-78
2021/08/09 11:07:06;;;;;;;0.57;0.57;;;;;;;39.48;23.84;99824.50;4741790;30;20063;-80
2021/08/09 11:09:44;;;;;;;0.43;0.43;;;;;;;40.02;23.14;99816.22;4728975;30;20079;-79
2021/08/09 11:12:24;;;;;;;0.50;0.50;;;;;;;39.99;23.39;99828.22;4701396;30;20280;-77
2021/08/09 11:15:00;;;;;;;0.40;0.40;;;;;;;40.08;23.12;99818.84;4713947;30;20146;-80
2021/08/09 11:17:49;;;;;;;0.50;0.50;;;;;;;39.85;23.05;99821.16;4714945;30;20060;-79
2021/08/09 11:20:45;;;;;;;0.50;0.50;;;;;;;39.45;23.31;99818.69;4732598;30;20105;-79
2021/08/09 11:23:15;;;;;;;0.50;0.50;;;;;;;39.74;23.23;99823.56;4753361;30;20127;-79
2021/08/09 11:25:54;;;;;;;0.40;0.40;;;;;;;40.30;22.74;99818.53;4753794;30;20048;-80
2021/08/09 11:28:23;;;;;;;0.50;0.50;;;;;;;39.35;24.27;99816.25;4742474;30;20313;-80
2021/08/09 11:31:00;;;;;;;0.50;0.50;;;;;;;40.13;23.72;99815.84;4769837;29;20086;-80
2021/08/09 11:33:42;;;;;;;0.45;0.45;;;;;;;39.77;23.66;99808.72;4758760;30;20058;-81
2021/08/09 11:36:11;;;;;;;0.40;0.40;;;;;;;40.07;23.71;99805.84;4709124;30;20071;-82
2021/08/09 11:38:55;;;;;;;0.50;0.50;;;;;;;40.45;23.02;99812.22;4748072;30;20108;-81
2021/08/09 11:41:38;;;;;;;0.50;0.50;;;;;;;40.63;22.58;99804.41;4741470;30;20058;-79
2021/08/09 11:44:07;;;;;;;0.50;0.50;;;;;;;39.73;23.48;99810.59;4763014;29;20546;-78
2021/08/09 11:46:53;;;;;;;0.40;0.40;;;;;;;40.19;23.15;99806.81;4752569;29;20141;-79
2021/08/09 11:49:28;;;;;;;0.50;0.50;;;;;;;39.22;24.12;99801.97;4757965;30;20074;-81